Time;durP1;ratioP1;P1;durP2;ratioP2;P2;SDS_P1;SDS_P2;PMS_P1;PMS_P2;Temp;Humidity;BMP_temperature;BMP_pressure;BME280_temperature;BME280_humidity;BME280_pressure;Samples;Min_cycle;Max_cycle;Signal;HPM_P1;HPM_P2
2022/12/06 00:01:22;;;;;;;29.33;13.20;;;;;;;-1.23;100.00;96860.47;5012511;28;20036;-70
2022/12/06 00:03:52;;;;;;;19.25;12.23;;;;;;;-1.16;100.00;96863.59;5010715;28;20034;-71
2022/12/06 00:06:19;;;;;;;24.10;13.93;;;;;;;-1.28;100.00;96865.88;5013128;28;20625;-71
2022/12/06 00:08:46;;;;;;;26.08;15.10;;;;;;;-1.41;100.00;96866.59;5015836;28;20038;-70
2022/12/06 00:11:18;;;;;;;27.38;16.63;;;;;;;-1.45;100.00;96855.59;5014211;28;20061;-72
2022/12/06 00:13:44;;;;;;;22.60;13.15;;;;;;;-1.48;100.00;96864.22;5008251;28;20080;-72
2022/12/06 00:16:14;;;;;;;26.25;15.25;;;;;;;-1.48;100.00;96856.16;5010077;28;20022;-70
2022/12/06 00:18:41;;;;;;;30.27;15.82;;;;;;;-1.47;100.00;96859.69;5012975;28;20029;-71
2022/12/06 00:21:06;;;;;;;71.72;23.55;;;;;;;-1.41;100.00;96855.84;5012673;28;20038;-69
2022/12/06 00:23:37;;;;;;;38.80;18.15;;;;;;;-1.38;100.00;96863.34;5011841;28;20105;-71
2022/12/06 00:26:04;;;;;;;38.83;19.35;;;;;;;-1.32;100.00;96861.38;5011673;28;20430;-71
2022/12/06 00:28:30;;;;;;;24.70;15.32;;;;;;;-1.49;100.00;96865.31;5018924;28;20025;-71
2022/12/06 00:30:59;;;;;;;25.83;15.60;;;;;;;-1.71;100.00;96865.00;5017078;28;20025;-71
2022/12/06 00:33:25;;;;;;;28.17;16.98;;;;;;;-1.85;100.00;96870.25;5010386;28;20026;-68
2022/12/06 00:36:02;;;;;;;39.42;19.15;;;;;;;-1.83;100.00;96870.75;5012466;28;20041;-69
2022/12/06 00:38:28;;;;;;;34.47;18.17;;;;;;;-1.76;100.00;96863.19;5004176;28;20349;-71
2022/12/06 00:41:02;;;;;;;28.92;17.52;;;;;;;-1.58;100.00;96859.78;5015207;28;20029;-69
2022/12/06 00:43:28;;;;;;;40.28;21.90;;;;;;;-1.45;100.00;96857.50;5015500;28;20145;-66
2022/12/06 00:45:54;;;;;;;39.38;22.17;;;;;;;-1.43;100.00;96858.81;5015708;28;20538;-68
2022/12/06 00:48:20;;;;;;;35.40;19.02;;;;;;;-1.41;100.00;96859.31;5016340;28;20033;-70
2022/12/06 00:50:46;;;;;;;34.83;19.52;;;;;;;-1.24;100.00;96852.69;5015134;28;20026;-70
2022/12/06 00:53:11;;;;;;;35.90;19.38;;;;;;;-1.16;100.00;96858.22;5018520;28;20037;-71
2022/12/06 00:55:37;;;;;;;36.17;20.42;;;;;;;-1.17;100.00;96853.13;5016157;28;20034;-71
2022/12/06 00:58:02;;;;;;;35.72;18.65;;;;;;;-1.20;100.00;96849.16;5019060;28;20033;-69
2022/12/06 01:00:28;;;;;;;33.30;18.48;;;;;;;-1.10;100.00;96852.78;5016998;28;20057;-68
2022/12/06 01:02:53;;;;;;;33.28;19.05;;;;;;;-1.20;100.00;96848.34;5036021;28;20022;-69
2022/12/06 01:05:18;;;;;;;45.40;24.83;;;;;;;-1.30;100.00;96854.63;5020543;28;20040;-66
2022/12/06 01:07:44;;;;;;;34.50;19.77;;;;;;;-1.33;100.00;96849.84;5019522;28;20048;-70
2022/12/06 01:10:10;;;;;;;34.72;19.17;;;;;;;-1.37;100.00;96852.31;5022124;28;20034;-70
2022/12/06 01:12:35;;;;;;;34.58;19.60;;;;;;;-1.45;100.00;96850.22;5021821;28;20048;-70
2022/12/06 01:15:00;;;;;;;30.58;17.90;;;;;;;-1.48;100.00;96850.00;5016251;28;20022;-67
2022/12/06 01:17:26;;;;;;;32.03;17.88;;;;;;;-1.56;100.00;96852.22;5019372;28;20036;-69
2022/12/06 01:19:51;;;;;;;37.35;19.95;;;;;;;-1.59;100.00;96849.31;5018786;28;20033;-71
2022/12/06 01:22:17;;;;;;;39.35;21.85;;;;;;;-1.57;100.00;96839.06;5021023;28;20103;-71
2022/12/06 01:24:42;;;;;;;36.03;19.33;;;;;;;-1.72;100.00;96845.41;5022493;28;20921;-69
2022/12/06 01:27:07;;;;;;;44.70;23.05;;;;;;;-1.73;100.00;96849.16;5014441;28;20042;-71
2022/12/06 01:29:33;;;;;;;36.90;21.15;;;;;;;-1.79;100.00;96848.41;5020356;28;20147;-71
2022/12/06 01:31:58;;;;;;;47.58;24.63;;;;;;;-1.67;100.00;96839.19;5033750;28;20038;-68
2022/12/06 01:34:24;;;;;;;51.58;26.10;;;;;;;-1.56;100.00;96841.47;5032552;28;20029;-70
2022/12/06 01:36:49;;;;;;;50.28;24.92;;;;;;;-1.51;100.00;96839.81;5031658;28;20368;-70
2022/12/06 01:39:14;;;;;;;61.22;27.48;;;;;;;-1.59;100.00;96839.34;5033490;28;20037;-68
2022/12/06 01:41:41;;;;;;;47.47;25.17;;;;;;;-1.59;100.00;96835.88;5033291;28;20067;-70
2022/12/06 01:44:26;;;;;;;54.80;27.23;;;;;;;-1.64;100.00;96836.75;5033051;28;20032;-72
2022/12/06 01:46:53;;;;;;;50.70;26.15;;;;;;;-1.67;100.00;96834.63;5032137;28;20033;-70
2022/12/06 01:49:24;;;;;;;54.30;26.67;;;;;;;-1.65;100.00;96832.44;5032932;28;20029;-72
2022/12/06 01:51:55;;;;;;;46.72;24.20;;;;;;;-1.46;100.00;96827.16;5033035;28;20037;-70
2022/12/06 01:54:22;;;;;;;50.88;24.85;;;;;;;-1.47;100.00;96830.13;5032560;28;20037;-72
2022/12/06 01:56:51;;;;;;;47.53;24.88;;;;;;;-1.59;100.00;96833.19;5031927;28;20032;-70
2022/12/06 01:59:18;;;;;;;43.65;23.25;;;;;;;-1.70;100.00;96831.69;5039395;28;20038;-72
2022/12/06 02:01:44;;;;;;;41.30;22.33;;;;;;;-1.82;100.00;96840.13;5034603;28;20037;-69
2022/12/06 02:04:10;;;;;;;41.78;22.27;;;;;;;-1.85;100.00;96830.75;5031772;28;20490;-70
2022/12/06 02:06:37;;;;;;;37.17;20.20;;;;;;;-1.87;100.00;96832.94;5031132;28;20044;-71
2022/12/06 02:09:06;;;;;;;35.70;20.10;;;;;;;-1.96;100.00;96830.06;5032911;28;20042;-70
2022/12/06 02:11:31;;;;;;;34.60;19.67;;;;;;;-2.01;100.00;96832.00;5032528;28;20537;-70
2022/12/06 02:13:57;;;;;;;40.63;21.85;;;;;;;-2.08;100.00;96832.31;5032543;28;20099;-70
2022/12/06 02:16:54;;;;;;;45.00;22.50;;;;;;;-2.13;100.00;96824.28;5032287;28;20033;-72
2022/12/06 02:19:31;;;;;;;36.58;20.08;;;;;;;-2.19;100.00;96822.75;5032711;28;20479;-70
2022/12/06 02:22:15;;;;;;;39.25;20.38;;;;;;;-2.13;100.00;96824.28;5032598;28;20406;-71
2022/12/06 02:25:05;;;;;;;43.38;21.65;;;;;;;-2.14;100.00;96820.81;5033668;28;20029;-72
2022/12/06 02:27:53;;;;;;;39.67;20.83;;;;;;;-2.20;100.00;96816.56;5038665;28;20029;-70
2022/12/06 02:30:52;;;;;;;34.08;19.98;;;;;;;-2.23;100.00;96827.06;5032372;28;20065;-69
2022/12/06 02:33:23;;;;;;;34.63;18.88;;;;;;;-2.24;100.00;96823.56;5032719;28;20029;-71
2022/12/06 02:36:02;;;;;;;35.25;19.67;;;;;;;-2.09;100.00;96817.28;5031666;28;20457;-68
2022/12/06 02:38:38;;;;;;;37.65;20.02;;;;;;;-2.02;100.00;96820.44;5032051;28;20120;-71
2022/12/06 02:41:11;;;;;;;42.08;21.17;;;;;;;-2.02;100.00;96822.31;5032771;28;20029;-69
2022/12/06 02:43:42;;;;;;;44.75;22.27;;;;;;;-2.05;100.00;96826.38;5033256;28;20025;-71
2022/12/06 02:46:12;;;;;;;46.53;23.95;;;;;;;-2.04;100.00;96814.53;5032053;28;20037;-71
2022/12/06 02:48:38;;;;;;;47.42;25.48;;;;;;;-2.03;100.00;96816.16;5032002;28;20426;-68
2022/12/06 02:51:11;;;;;;;52.03;25.00;;;;;;;-1.96;100.00;96813.16;5031796;28;20040;-69
2022/12/06 02:53:40;;;;;;;44.67;24.23;;;;;;;-1.94;100.00;96802.94;5031880;28;20041;-69
2022/12/06 02:56:06;;;;;;;44.25;22.33;;;;;;;-1.96;100.00;96805.09;5038524;28;20030;-70
2022/12/06 02:58:36;;;;;;;46.72;23.88;;;;;;;-2.03;100.00;96810.00;5046165;28;20051;-70
2022/12/06 03:01:05;;;;;;;55.40;26.40;;;;;;;-2.08;100.00;96808.16;5044930;28;20379;-69
2022/12/06 03:03:49;;;;;;;50.08;26.13;;;;;;;-2.06;100.00;96808.66;5036895;28;20053;-71
2022/12/06 03:06:21;;;;;;;50.90;26.65;;;;;;;-2.00;100.00;96798.69;5031027;28;20526;-69
2022/12/06 03:09:19;;;;;;;51.53;25.50;;;;;;;-1.94;100.00;96794.88;5032020;28;20528;-71
2022/12/06 03:11:47;;;;;;;46.60;24.05;;;;;;;-1.85;100.00;96800.44;5031597;28;20060;-71
2022/12/06 03:14:18;;;;;;;47.00;24.13;;;;;;;-1.48;100.00;96796.28;5031676;28;20041;-71
2022/12/06 03:16:50;;;;;;;47.97;24.77;;;;;;;-1.30;100.00;96794.72;5029655;28;20063;-68
2022/12/06 03:19:27;;;;;;;59.47;28.27;;;;;;;-1.28;100.00;96790.66;5031813;28;20029;-69
2022/12/06 03:22:05;;;;;;;47.92;25.70;;;;;;;-1.26;100.00;96787.66;5031691;28;20061;-70
2022/12/06 03:24:34;;;;;;;48.83;26.17;;;;;;;-1.19;100.00;96788.13;5032374;28;20047;-69
2022/12/06 03:27:06;;;;;;;47.88;24.75;;;;;;;-1.07;100.00;96783.13;5032498;28;20091;-70
2022/12/06 03:29:36;;;;;;;46.28;25.95;;;;;;;-0.96;100.00;96781.91;5033278;28;20041;-70
2022/12/06 03:32:04;;;;;;;46.92;24.15;;;;;;;-0.86;100.00;96783.66;5031156;28;20087;-69
2022/12/06 03:34:36;;;;;;;46.45;23.70;;;;;;;-0.88;100.00;96785.84;5030985;28;20117;-70
2022/12/06 03:37:04;;;;;;;48.30;25.67;;;;;;;-0.90;100.00;96782.66;5030924;28;20041;-71
2022/12/06 03:39:48;;;;;;;48.50;26.48;;;;;;;-1.21;100.00;96779.56;5039909;28;20065;-69
2022/12/06 03:42:14;;;;;;;52.80;26.88;;;;;;;-1.35;100.00;96790.22;5031904;28;20456;-68
2022/12/06 03:44:39;;;;;;;57.08;28.15;;;;;;;-1.39;100.00;96779.25;5031155;28;20557;-70
2022/12/06 03:47:13;;;;;;;53.38;26.65;;;;;;;-1.38;100.00;96786.22;5030367;28;20041;-68
2022/12/06 03:49:44;;;;;;;53.47;27.85;;;;;;;-1.35;100.00;96779.47;5031077;28;20119;-71
2022/12/06 03:52:09;;;;;;;52.78;27.38;;;;;;;-1.43;100.00;96774.72;5029856;28;20037;-68
2022/12/06 03:54:38;;;;;;;56.25;27.63;;;;;;;-1.44;100.00;96773.13;5030923;28;20033;-69
2022/12/06 03:57:04;;;;;;;53.65;27.10;;;;;;;-1.42;100.00;96782.50;5030419;28;20034;-70
2022/12/06 03:59:29;;;;;;;60.22;30.02;;;;;;;-1.40;100.00;96769.56;5030946;28;20030;-69
2022/12/06 04:01:54;;;;;;;55.92;28.70;;;;;;;-1.40;100.00;96771.47;5031384;28;20198;-70
2022/12/06 04:04:20;;;;;;;54.38;26.60;;;;;;;-1.38;100.00;96772.78;5014309;28;20042;-69
2022/12/06 04:06:45;;;;;;;49.90;27.02;;;;;;;-1.45;100.00;96772.31;5010430;28;20840;-68
2022/12/06 04:11:55;;;;;;;46.80;24.20;;;;;;;-1.35;100.00;96774.91;5011006;28;20026;-71
2022/12/06 04:14:21;;;;;;;45.42;23.27;;;;;;;-1.48;100.00;96767.50;5009861;28;20041;-71
2022/12/06 04:19:30;;;;;;;44.38;22.65;;;;;;;-1.33;100.00;96768.41;5015066;28;20402;-70
2022/12/06 04:24:40;;;;;;;43.05;23.83;;;;;;;-1.42;100.00;96766.38;5015381;28;20030;-68
2022/12/06 04:40:46;;;;;;;39.08;19.98;;;;;;;-1.18;100.00;96765.53;5014561;28;20498;-70
2022/12/06 04:45:56;;;;;;;34.50;19.20;;;;;;;-1.11;100.00;96767.88;5014096;28;20069;-71
2022/12/06 04:48:22;;;;;;;37.58;18.02;;;;;;;-1.10;100.00;96756.03;5014142;28;20064;-69
2022/12/06 04:50:48;;;;;;;30.25;17.30;;;;;;;-1.08;100.00;96761.91;5015440;28;20033;-71
2022/12/06 04:53:13;;;;;;;27.13;16.70;;;;;;;-1.12;100.00;96756.31;5016894;28;20034;-69
2022/12/06 04:55:39;;;;;;;26.65;16.02;;;;;;;-1.12;100.00;96760.91;5030266;28;20065;-67
2022/12/06 04:58:04;;;;;;;28.27;16.15;;;;;;;-1.22;100.00;96759.94;5033711;28;20044;-69
2022/12/06 05:00:30;;;;;;;22.75;14.82;;;;;;;-1.19;100.00;96763.94;5028154;28;20113;-71
2022/12/06 05:02:55;;;;;;;22.85;14.50;;;;;;;-1.18;100.00;96760.16;5027101;28;20091;-68
2022/12/06 05:05:21;;;;;;;20.85;14.60;;;;;;;-1.12;100.00;96752.84;5031138;28;20053;-67
2022/12/06 05:07:46;;;;;;;19.88;12.85;;;;;;;-1.13;100.00;96753.91;5030714;28;20086;-69
2022/12/06 05:10:12;;;;;;;18.85;13.32;;;;;;;-1.16;100.00;96760.69;5030172;28;20037;-70
2022/12/06 05:12:37;;;;;;;22.00;14.02;;;;;;;-1.14;100.00;96761.19;5028138;28;20033;-70
2022/12/06 05:15:03;;;;;;;20.77;13.20;;;;;;;-1.08;100.00;96760.03;5028407;28;20073;-71
2022/12/06 05:17:28;;;;;;;21.45;13.80;;;;;;;-1.05;100.00;96754.06;5019814;28;20033;-70
2022/12/06 05:19:53;;;;;;;19.63;13.60;;;;;;;-1.09;100.00;96750.38;5017638;28;20430;-71
2022/12/06 05:22:19;;;;;;;22.27;14.98;;;;;;;-1.01;100.00;96754.28;5019419;28;20029;-71
2022/12/06 05:24:44;;;;;;;20.73;13.68;;;;;;;-1.01;100.00;96751.59;5034153;28;20082;-70
2022/12/06 05:27:09;;;;;;;19.77;13.65;;;;;;;-1.09;100.00;96752.25;5025500;28;20080;-72
2022/12/06 05:29:35;;;;;;;19.67;12.93;;;;;;;-1.11;100.00;96757.13;5031035;28;20056;-68
2022/12/06 05:32:00;;;;;;;22.55;14.80;;;;;;;-1.05;100.00;96755.97;5034130;28;20038;-70
2022/12/06 05:34:25;;;;;;;21.20;13.77;;;;;;;-0.97;100.00;96758.00;5018010;28;20052;-72
2022/12/06 05:36:51;;;;;;;18.88;13.10;;;;;;;-0.93;100.00;96750.97;5033505;28;20060;-69
2022/12/06 05:39:16;;;;;;;20.13;13.30;;;;;;;-0.96;100.00;96754.22;5033605;28;20038;-70
2022/12/06 05:41:42;;;;;;;21.48;14.23;;;;;;;-0.87;100.00;96757.84;5033572;28;20038;-70
2022/12/06 05:44:10;;;;;;;23.83;14.75;;;;;;;-0.91;100.00;96758.75;5032354;28;20086;-71
2022/12/06 05:46:35;;;;;;;18.35;13.45;;;;;;;-0.84;100.00;96754.59;5014163;28;20030;-72
2022/12/06 05:49:00;;;;;;;19.40;12.52;;;;;;;-0.75;100.00;96748.56;5013351;28;20076;-71
2022/12/06 05:51:26;;;;;;;23.02;14.60;;;;;;;-0.69;100.00;96742.78;5014979;28;20121;-73
2022/12/06 05:53:51;;;;;;;23.33;14.18;;;;;;;-1.04;100.00;96742.25;5017244;28;20042;-71
2022/12/06 05:56:17;;;;;;;21.02;13.35;;;;;;;-0.98;100.00;96741.06;5013717;28;20060;-70
2022/12/06 05:58:42;;;;;;;22.42;13.88;;;;;;;-0.85;100.00;96731.47;5014558;28;20057;-71
2022/12/06 06:01:08;;;;;;;25.10;15.25;;;;;;;-1.01;100.00;96738.97;5013318;28;20399;-71
2022/12/06 06:03:34;;;;;;;23.42;15.27;;;;;;;-0.92;100.00;96732.94;5011901;28;20037;-71
2022/12/06 06:06:00;;;;;;;24.20;15.38;;;;;;;-0.81;100.00;96729.81;5009454;28;20049;-70
2022/12/06 06:08:26;;;;;;;26.38;16.23;;;;;;;-0.84;100.00;96740.34;5013486;28;20030;-70
2022/12/06 06:10:52;;;;;;;23.25;14.75;;;;;;;-0.93;100.00;96740.19;5012753;28;20403;-72
2022/12/06 06:13:17;;;;;;;23.73;15.70;;;;;;;-0.94;100.00;96738.59;5012912;28;20025;-69
2022/12/06 06:15:43;;;;;;;26.38;17.13;;;;;;;-0.85;100.00;96734.16;5016052;28;20037;-69
2022/12/06 06:18:08;;;;;;;26.88;16.67;;;;;;;-0.65;100.00;96737.63;5013311;28;20034;-70
2022/12/06 06:20:34;;;;;;;25.42;16.33;;;;;;;-0.59;100.00;96731.09;5013009;28;20079;-71
2022/12/06 06:22:59;;;;;;;22.23;15.52;;;;;;;-0.51;100.00;96732.31;5013012;28;20034;-70
2022/12/06 06:25:25;;;;;;;23.25;15.10;;;;;;;-0.51;100.00;96725.03;5012286;28;20079;-70
2022/12/06 06:27:50;;;;;;;23.98;14.75;;;;;;;-0.45;100.00;96733.81;5012747;28;20068;-71
2022/12/06 06:30:16;;;;;;;21.35;14.93;;;;;;;-0.46;100.00;96729.53;5014882;28;20379;-70
2022/12/06 06:32:41;;;;;;;25.00;14.93;;;;;;;-0.35;100.00;96724.78;5012948;28;20176;-71
2022/12/06 06:35:07;;;;;;;22.42;14.13;;;;;;;-0.26;100.00;96725.69;5012634;28;20050;-70
2022/12/06 06:37:33;;;;;;;21.85;15.48;;;;;;;-0.29;100.00;96723.59;5012120;28;20041;-71
2022/12/06 06:39:59;;;;;;;22.33;14.80;;;;;;;-0.34;100.00;96724.50;5012563;28;20145;-71
2022/12/06 06:42:25;;;;;;;25.88;15.13;;;;;;;-0.33;100.00;96727.97;5045007;28;20168;-71
2022/12/06 06:44:53;;;;;;;23.50;15.10;;;;;;;-0.30;100.00;96713.94;5012632;28;20479;-70
2022/12/06 06:47:21;;;;;;;23.65;15.20;;;;;;;-0.24;100.00;96723.50;5012335;28;20058;-71
2022/12/06 06:49:46;;;;;;;27.90;16.58;;;;;;;-0.14;100.00;96720.66;5011522;28;20105;-71
2022/12/06 06:52:12;;;;;;;25.38;16.23;;;;;;;-0.13;100.00;96716.84;5013028;28;20104;-71
2022/12/06 06:54:37;;;;;;;26.80;16.63;;;;;;;-0.08;100.00;96719.44;5044402;28;20033;-71
2022/12/06 06:57:03;;;;;;;25.90;16.80;;;;;;;-0.11;100.00;96708.47;5011771;28;20116;-69
2022/12/06 06:59:28;;;;;;;29.75;18.42;;;;;;;-0.05;100.00;96707.28;5010056;28;20049;-70
2022/12/06 07:01:54;;;;;;;33.15;18.52;;;;;;;-0.03;100.00;96718.56;5011087;28;20449;-70
2022/12/06 07:04:19;;;;;;;27.35;17.58;;;;;;;0.04;100.00;96718.97;5002142;28;20026;-71
2022/12/06 07:06:45;;;;;;;30.17;18.42;;;;;;;0.13;100.00;96724.47;5006250;28;20785;-72
2022/12/06 07:09:10;;;;;;;33.97;20.88;;;;;;;0.08;100.00;96716.47;5047545;28;20037;-71
2022/12/06 07:11:36;;;;;;;35.70;21.75;;;;;;;0.07;100.00;96723.75;5021547;28;20513;-70
2022/12/06 07:14:02;;;;;;;39.40;23.88;;;;;;;0.09;100.00;96712.66;5010540;28;20025;-70
2022/12/06 07:16:28;;;;;;;36.15;22.30;;;;;;;0.10;100.00;96715.06;5003824;28;20027;-70
2022/12/06 07:18:54;;;;;;;34.17;20.98;;;;;;;0.01;100.00;96710.69;5001911;28;20033;-69
2022/12/06 07:21:22;;;;;;;40.55;21.35;;;;;;;0.04;100.00;96707.38;5032632;28;20150;-69
2022/12/06 07:23:48;;;;;;;33.45;21.80;;;;;;;0.09;100.00;96707.28;5002856;28;20040;-70
2022/12/06 07:26:20;;;;;;;34.75;22.15;;;;;;;0.03;100.00;96705.78;5008320;28;20034;-70
2022/12/06 07:28:47;;;;;;;33.20;20.90;;;;;;;-0.15;100.00;96696.69;5009658;28;20031;-71
2022/12/06 07:31:21;;;;;;;33.22;21.83;;;;;;;-0.14;100.00;96711.78;5001316;28;20034;-70
2022/12/06 07:33:50;;;;;;;42.78;25.25;;;;;;;-0.02;100.00;96707.50;4992752;28;20533;-71
2022/12/06 07:36:16;;;;;;;39.80;22.77;;;;;;;-0.13;100.00;96691.81;4994028;28;20045;-71
2022/12/06 07:38:42;;;;;;;35.70;22.27;;;;;;;-0.35;100.00;96695.19;4994609;28;20129;-70
2022/12/06 07:46:42;;;;;;;48.28;29.35;;;;;;;-0.66;100.00;96693.00;4992198;28;20084;-70
2022/12/06 07:49:08;;;;;;;47.80;25.85;;;;;;;-0.78;100.00;96691.56;5001632;28;20034;-72
2022/12/06 07:51:33;;;;;;;57.38;30.88;;;;;;;-0.72;100.00;96696.84;5004219;28;20045;-69
2022/12/06 07:53:59;;;;;;;45.50;25.05;;;;;;;-0.59;100.00;96704.19;5008600;28;20029;-69
2022/12/06 07:56:25;;;;;;;40.85;22.13;;;;;;;-0.57;100.00;96695.81;5006274;28;20034;-69
2022/12/06 07:58:51;;;;;;;38.05;22.58;;;;;;;-0.59;100.00;96698.81;5007299;28;20034;-70
2022/12/06 08:01:16;;;;;;;71.13;44.25;;;;;;;-0.51;100.00;96698.13;5014484;28;20040;-71
2022/12/06 08:03:42;;;;;;;37.53;22.10;;;;;;;-0.47;100.00;96703.72;5044684;28;20095;-73
2022/12/06 08:06:07;;;;;;;42.83;27.00;;;;;;;-0.45;100.00;96693.44;5011224;28;20052;-70
2022/12/06 08:08:34;;;;;;;56.85;40.67;;;;;;;-0.38;100.00;96704.63;5010744;28;20030;-71
2022/12/06 08:11:01;;;;;;;30.63;17.98;;;;;;;-0.40;100.00;96699.56;5003147;28;20373;-68
2022/12/06 08:13:28;;;;;;;29.05;17.23;;;;;;;-0.31;100.00;96709.63;5004165;28;20497;-71
2022/12/06 08:15:53;;;;;;;29.00;17.85;;;;;;;-0.21;100.00;96699.47;5006334;28;20129;-69
2022/12/06 08:18:19;;;;;;;26.77;15.65;;;;;;;-0.25;100.00;96701.19;5013361;28;20480;-70
2022/12/06 08:20:44;;;;;;;27.10;16.63;;;;;;;-0.32;100.00;96706.16;5045718;28;20045;-69
2022/12/06 08:23:10;;;;;;;25.63;15.32;;;;;;;-0.39;100.00;96703.84;5029118;28;20053;-71
2022/12/06 08:25:36;;;;;;;23.67;15.10;;;;;;;-0.34;100.00;96708.34;5002096;28;20053;-74
2022/12/06 08:28:02;;;;;;;21.70;13.20;;;;;;;-0.24;100.00;96707.34;4998130;28;20039;-70
2022/12/06 08:30:28;;;;;;;29.30;20.50;;;;;;;-0.20;100.00;96711.03;4985775;28;20065;-71
2022/12/06 08:32:54;;;;;;;25.33;14.73;;;;;;;-0.22;100.00;96710.53;4985789;28;20050;-72
2022/12/06 08:35:19;;;;;;;22.98;14.05;;;;;;;-0.18;100.00;96711.56;4991906;28;20482;-71
2022/12/06 08:37:45;;;;;;;20.17;13.68;;;;;;;-0.06;100.00;96706.47;4993344;28;20042;-70
2022/12/06 08:40:10;;;;;;;19.35;12.68;;;;;;;0.12;100.00;96709.41;4992930;28;20077;-72
2022/12/06 08:42:36;;;;;;;17.92;11.40;;;;;;;0.32;100.00;96711.69;4988638;28;20042;-71
2022/12/06 08:45:02;;;;;;;19.08;11.60;;;;;;;0.51;100.00;96708.88;5002369;28;20592;-66
2022/12/06 08:47:27;;;;;;;17.80;11.20;;;;;;;0.59;100.00;96703.88;4998998;28;20049;-72
2022/12/06 08:49:53;;;;;;;18.17;11.55;;;;;;;0.89;100.00;96697.84;4993608;28;20042;-68
2022/12/06 08:52:18;;;;;;;19.48;12.30;;;;;;;1.10;100.00;96708.97;4984262;28;20038;-69
2022/12/06 08:54:44;;;;;;;18.05;10.57;;;;;;;1.21;100.00;96712.22;4992314;28;20042;-72
2022/12/06 08:57:09;;;;;;;17.23;9.68;;;;;;;1.25;100.00;96704.31;4996771;28;20050;-70
2022/12/06 08:59:35;;;;;;;15.65;9.32;;;;;;;1.37;100.00;96712.66;5001088;28;20046;-71
2022/12/06 09:02:01;;;;;;;13.77;8.68;;;;;;;1.48;100.00;96715.91;5001986;28;20552;-71
2022/12/06 09:04:27;;;;;;;13.82;9.52;;;;;;;1.57;100.00;96711.38;5016054;28;20046;-72
2022/12/06 09:06:52;;;;;;;13.43;8.82;;;;;;;1.61;100.00;96714.25;4994873;28;20404;-70
2022/12/06 09:09:18;;;;;;;13.20;8.57;;;;;;;1.75;100.00;96714.16;4998677;28;20087;-71
2022/12/06 09:11:45;;;;;;;14.35;8.50;;;;;;;1.89;100.00;96717.56;5003495;28;20042;-71
2022/12/06 09:14:15;;;;;;;12.70;8.77;;;;;;;2.00;100.00;96710.81;5002738;28;20049;-73
2022/12/06 09:16:42;;;;;;;12.93;9.48;;;;;;;2.02;100.00;96714.00;5009026;28;20137;-74
2022/12/06 09:19:09;;;;;;;18.88;11.15;;;;;;;2.14;100.00;96724.22;5008242;28;20065;-67
2022/12/06 09:21:38;;;;;;;15.02;10.35;;;;;;;2.22;100.00;96726.19;5009456;28;20092;-70
2022/12/06 09:24:05;;;;;;;18.40;11.18;;;;;;;2.36;100.00;96720.66;5028947;28;20415;-68
2022/12/06 09:26:30;;;;;;;18.10;11.95;;;;;;;2.35;100.00;96723.69;4996434;28;20050;-70
2022/12/06 09:28:57;;;;;;;20.63;12.90;;;;;;;2.37;100.00;96719.53;4989213;28;20376;-71
2022/12/06 09:31:24;;;;;;;19.77;12.63;;;;;;;2.47;100.00;96721.97;4979148;28;20859;-70
2022/12/06 09:33:50;;;;;;;17.48;11.80;;;;;;;2.59;100.00;96725.97;4987800;28;20133;-70
2022/12/06 09:36:23;;;;;;;19.48;12.23;;;;;;;2.57;100.00;96722.78;4978442;28;20492;-72
2022/12/06 09:38:54;;;;;;;17.33;10.93;;;;;;;2.67;100.00;96719.81;4991142;28;20053;-72
2022/12/06 09:41:48;;;;;;;18.65;12.05;;;;;;;2.70;100.00;96713.75;4983938;28;20451;-70
2022/12/06 09:44:51;;;;;;;22.10;13.45;;;;;;;2.87;100.00;96721.13;4970235;28;20066;-70
2022/12/06 09:47:37;;;;;;;23.23;13.75;;;;;;;2.66;100.00;96713.56;4974623;28;20117;-70
2022/12/06 09:50:28;;;;;;;20.20;12.52;;;;;;;2.57;100.00;96720.09;4967577;28;20049;-70
2022/12/06 09:53:07;;;;;;;22.13;13.80;;;;;;;2.83;100.00;96718.25;4963095;28;20518;-70
2022/12/06 09:55:44;;;;;;;17.02;10.63;;;;;;;2.85;100.00;96721.44;4964534;28;20081;-71
2022/12/06 09:58:16;;;;;;;27.75;15.32;;;;;;;2.81;100.00;96716.94;4956457;28;20046;-71
2022/12/06 10:00:48;;;;;;;24.92;15.80;;;;;;;3.01;100.00;96700.13;4963559;28;20062;-70
2022/12/06 10:03:28;;;;;;;27.88;16.27;;;;;;;2.94;100.00;96705.22;4956030;28;20049;-70
2022/12/06 10:06:00;;;;;;;24.13;14.93;;;;;;;3.36;100.00;96710.94;4964401;28;20043;-71
2022/12/06 10:08:33;;;;;;;26.75;15.38;;;;;;;3.44;100.00;96707.44;4960204;28;20074;-72
2022/12/06 10:11:17;;;;;;;27.90;15.27;;;;;;;3.64;100.00;96700.56;4997277;28;20054;-71
2022/12/06 10:14:07;;;;;;;28.40;15.02;;;;;;;4.00;100.00;96704.00;4963683;28;20051;-70
2022/12/06 10:16:41;;;;;;;20.63;14.05;;;;;;;4.26;100.00;96701.19;4997734;28;20034;-70
2022/12/06 10:19:21;;;;;;;21.50;14.15;;;;;;;4.49;100.00;96688.16;4997509;28;20332;-71
2022/12/06 10:22:10;;;;;;;20.45;12.13;;;;;;;4.52;100.00;96692.94;5017085;28;20054;-69
2022/12/06 10:25:17;;;;;;;19.77;11.75;;;;;;;4.49;100.00;96693.59;4997434;28;20089;-71
2022/12/06 10:27:49;;;;;;;16.88;10.98;;;;;;;4.35;100.00;96693.03;4993841;28;20046;-71
2022/12/06 10:30:15;;;;;;;15.23;10.35;;;;;;;4.45;100.00;96689.94;4988950;28;20041;-71
2022/12/06 10:33:18;;;;;;;16.42;11.63;;;;;;;4.27;100.00;96693.84;4993551;28;20434;-71
2022/12/06 10:35:55;;;;;;;16.75;11.13;;;;;;;4.39;100.00;96696.66;4981954;28;20069;-70
2022/12/06 10:38:26;;;;;;;19.80;11.50;;;;;;;4.57;100.00;96697.38;4991807;28;20034;-70
2022/12/06 10:40:59;;;;;;;20.13;12.63;;;;;;;4.63;100.00;96684.41;5007610;28;20034;-70
2022/12/06 10:43:35;;;;;;;20.88;12.68;;;;;;;4.68;100.00;96692.38;4996523;28;20978;-70
2022/12/06 10:49:45;;;;;;;23.55;14.10;;;;;;;4.60;100.00;96688.59;4995975;28;20073;-72
2022/12/06 10:52:33;;;;;;;22.95;14.60;;;;;;;4.31;100.00;96689.38;4994130;28;20042;-70
2022/12/06 10:55:08;;;;;;;26.45;16.17;;;;;;;4.26;100.00;96687.63;4996199;28;20105;-72
2022/12/06 10:58:08;;;;;;;32.97;17.33;;;;;;;3.77;100.00;96690.66;4999623;28;20037;-71
2022/12/06 11:00:38;;;;;;;30.75;17.63;;;;;;;3.66;100.00;96689.41;5008664;28;20038;-71
2022/12/06 11:03:07;;;;;;;31.27;17.80;;;;;;;3.70;100.00;96690.38;4998284;28;20435;-72
2022/12/06 11:05:53;;;;;;;32.72;18.23;;;;;;;3.82;100.00;96689.72;5031776;28;20046;-71
2022/12/06 11:08:42;;;;;;;29.05;18.52;;;;;;;3.85;100.00;96686.34;5028720;28;20054;-71
2022/12/06 11:11:16;;;;;;;30.10;17.67;;;;;;;3.91;100.00;96685.06;4998213;28;20400;-73
2022/12/06 11:14:02;;;;;;;32.25;17.27;;;;;;;3.72;100.00;96690.03;5001034;28;20383;-72
2022/12/06 11:16:43;;;;;;;30.92;18.25;;;;;;;3.75;100.00;96684.00;4999744;28;20049;-72
2022/12/06 11:19:32;;;;;;;34.55;19.45;;;;;;;3.87;100.00;96680.59;4997238;28;20121;-71
2022/12/06 11:22:19;;;;;;;30.92;18.90;;;;;;;3.70;100.00;96679.53;4998448;28;20756;-72
2022/12/06 11:25:21;;;;;;;35.70;19.90;;;;;;;3.61;100.00;96673.34;5009090;28;20065;-71
2022/12/06 11:27:59;;;;;;;35.83;19.13;;;;;;;3.60;100.00;96674.44;4998064;28;20065;-71
2022/12/06 11:30:27;;;;;;;40.15;22.83;;;;;;;3.59;100.00;96681.00;5001338;28;20046;-73
2022/12/06 11:32:56;;;;;;;39.50;21.83;;;;;;;3.59;100.00;96667.44;4998899;28;20061;-71
2022/12/06 11:35:25;;;;;;;34.97;19.83;;;;;;;3.47;100.00;96665.38;4993933;28;20121;-72
2022/12/06 11:37:55;;;;;;;36.00;21.50;;;;;;;3.52;100.00;96669.84;4998959;28;20041;-70
2022/12/06 11:40:31;;;;;;;35.63;20.60;;;;;;;3.55;100.00;96667.28;4996077;28;20068;-71
2022/12/06 11:43:01;;;;;;;40.05;22.20;;;;;;;3.97;100.00;96678.34;4995298;28;20062;-71
2022/12/06 11:45:32;;;;;;;38.55;20.65;;;;;;;4.36;100.00;96667.50;4992496;28;20120;-71
2022/12/06 11:48:01;;;;;;;35.35;19.13;;;;;;;4.43;100.00;96667.78;4990087;28;20136;-70
2022/12/06 11:50:32;;;;;;;36.40;20.33;;;;;;;4.30;100.00;96663.38;4986664;28;20038;-70
2022/12/06 11:53:04;;;;;;;35.58;19.05;;;;;;;4.34;100.00;96665.13;4987699;28;20042;-70
2022/12/06 11:55:42;;;;;;;39.30;21.98;;;;;;;4.36;100.00;96657.44;4989848;28;20051;-71
2022/12/06 11:58:18;;;;;;;31.92;18.70;;;;;;;4.08;100.00;96656.31;4980560;28;20063;-70